sensor_id;sensor_type;location;lat;lon;timestamp;P1;durP1;ratioP1;P2;durP2;ratioP2
51489;SDS011;57752;53.574;9.736;2023-01-15T00:04:23;12.48;;;2.17;;
51489;SDS011;57752;53.574;9.736;2023-01-15T00:09:23;6.18;;;2.20;;
51489;SDS011;57752;53.574;9.736;2023-01-15T00:14:23;11.75;;;2.30;;
51489;SDS011;57752;53.574;9.736;2023-01-15T00:19:24;7.90;;;1.98;;
51489;SDS011;57752;53.574;9.736;2023-01-15T00:24:24;12.35;;;2.17;;
51489;SDS011;57752;53.574;9.736;2023-01-15T00:29:43;12.50;;;2.47;;
51489;SDS011;57752;53.574;9.736;2023-01-15T00:34:43;12.68;;;2.10;;
51489;SDS011;57752;53.574;9.736;2023-01-15T00:39:43;8.95;;;2.20;;
51489;SDS011;57752;53.574;9.736;2023-01-15T00:44:43;10.60;;;2.25;;
51489;SDS011;57752;53.574;9.736;2023-01-15T00:49:43;9.73;;;2.00;;
51489;SDS011;57752;53.574;9.736;2023-01-15T00:54:44;14.55;;;2.67;;
51489;SDS011;57752;53.574;9.736;2023-01-15T00:59:44;11.95;;;2.50;;
51489;SDS011;57752;53.574;9.736;2023-01-15T01:04:44;10.40;;;2.50;;
51489;SDS011;57752;53.574;9.736;2023-01-15T01:09:44;9.30;;;2.22;;
51489;SDS011;57752;53.574;9.736;2023-01-15T01:14:44;9.50;;;2.10;;
51489;SDS011;57752;53.574;9.736;2023-01-15T01:19:45;11.90;;;2.40;;
51489;SDS011;57752;53.574;9.736;2023-01-15T01:24:45;10.15;;;2.15;;
51489;SDS011;57752;53.574;9.736;2023-01-15T01:29:45;9.73;;;2.17;;
51489;SDS011;57752;53.574;9.736;2023-01-15T01:34:45;8.20;;;2.13;;
51489;SDS011;57752;53.574;9.736;2023-01-15T01:39:45;9.63;;;2.30;;
51489;SDS011;57752;53.574;9.736;2023-01-15T01:49:46;12.60;;;2.70;;
51489;SDS011;57752;53.574;9.736;2023-01-15T01:54:47;12.40;;;2.67;;
51489;SDS011;57752;53.574;9.736;2023-01-15T01:59:49;9.77;;;3.28;;
51489;SDS011;57752;53.574;9.736;2023-01-15T02:04:49;12.00;;;2.70;;
51489;SDS011;57752;53.574;9.736;2023-01-15T02:09:50;11.63;;;3.05;;
51489;SDS011;57752;53.574;9.736;2023-01-15T02:14:54;11.07;;;2.60;;
51489;SDS011;57752;53.574;9.736;2023-01-15T02:20:15;11.98;;;3.00;;
51489;SDS011;57752;53.574;9.736;2023-01-15T02:25:43;13.57;;;2.78;;
51489;SDS011;57752;53.574;9.736;2023-01-15T02:30:39;10.38;;;2.60;;
51489;SDS011;57752;53.574;9.736;2023-01-15T02:35:45;10.30;;;2.50;;
51489;SDS011;57752;53.574;9.736;2023-01-15T02:40:46;11.98;;;2.53;;
51489;SDS011;57752;53.574;9.736;2023-01-15T02:45:49;15.80;;;3.37;;
51489;SDS011;57752;53.574;9.736;2023-01-15T02:50:52;14.25;;;3.28;;
51489;SDS011;57752;53.574;9.736;2023-01-15T02:55:54;12.52;;;2.53;;
51489;SDS011;57752;53.574;9.736;2023-01-15T03:00:56;14.43;;;2.80;;
51489;SDS011;57752;53.574;9.736;2023-01-15T03:06:01;12.82;;;2.92;;
51489;SDS011;57752;53.574;9.736;2023-01-15T03:11:16;11.93;;;2.80;;
51489;SDS011;57752;53.574;9.736;2023-01-15T03:16:23;14.68;;;2.88;;
51489;SDS011;57752;53.574;9.736;2023-01-15T03:21:48;8.48;;;2.60;;
51489;SDS011;57752;53.574;9.736;2023-01-15T03:26:48;14.70;;;2.92;;
51489;SDS011;57752;53.574;9.736;2023-01-15T03:31:48;15.13;;;2.92;;
51489;SDS011;57752;53.574;9.736;2023-01-15T03:36:49;12.02;;;2.47;;
51489;SDS011;57752;53.574;9.736;2023-01-15T03:47:07;10.35;;;2.50;;
51489;SDS011;57752;53.574;9.736;2023-01-15T03:52:15;14.52;;;2.70;;
51489;SDS011;57752;53.574;9.736;2023-01-15T03:57:22;15.07;;;2.72;;
51489;SDS011;57752;53.574;9.736;2023-01-15T04:02:26;18.02;;;3.38;;
51489;SDS011;57752;53.574;9.736;2023-01-15T04:07:27;11.93;;;2.78;;
51489;SDS011;57752;53.574;9.736;2023-01-15T04:12:27;17.35;;;3.28;;
51489;SDS011;57752;53.574;9.736;2023-01-15T04:17:27;13.38;;;3.47;;
51489;SDS011;57752;53.574;9.736;2023-01-15T04:22:27;13.75;;;3.35;;
51489;SDS011;57752;53.574;9.736;2023-01-15T04:27:28;14.43;;;2.72;;
51489;SDS011;57752;53.574;9.736;2023-01-15T04:32:28;14.70;;;2.47;;
51489;SDS011;57752;53.574;9.736;2023-01-15T04:37:28;13.18;;;3.00;;
51489;SDS011;57752;53.574;9.736;2023-01-15T04:42:28;15.35;;;2.60;;
51489;SDS011;57752;53.574;9.736;2023-01-15T04:47:47;18.65;;;3.20;;
51489;SDS011;57752;53.574;9.736;2023-01-15T04:52:49;17.35;;;3.00;;
51489;SDS011;57752;53.574;9.736;2023-01-15T04:57:49;16.90;;;3.75;;
51489;SDS011;57752;53.574;9.736;2023-01-15T05:02:49;13.85;;;3.38;;
51489;SDS011;57752;53.574;9.736;2023-01-15T05:07:49;13.48;;;2.70;;
51489;SDS011;57752;53.574;9.736;2023-01-15T05:12:49;12.67;;;3.07;;
51489;SDS011;57752;53.574;9.736;2023-01-15T05:17:50;11.45;;;3.25;;
51489;SDS011;57752;53.574;9.736;2023-01-15T05:22:50;10.52;;;2.60;;
51489;SDS011;57752;53.574;9.736;2023-01-15T05:27:50;10.60;;;2.90;;
51489;SDS011;57752;53.574;9.736;2023-01-15T05:32:50;17.30;;;3.30;;
51489;SDS011;57752;53.574;9.736;2023-01-15T05:37:50;14.80;;;3.10;;
51489;SDS011;57752;53.574;9.736;2023-01-15T05:42:50;16.58;;;3.15;;
51489;SDS011;57752;53.574;9.736;2023-01-15T05:47:53;13.38;;;3.65;;
51489;SDS011;57752;53.574;9.736;2023-01-15T05:57:53;14.45;;;3.20;;
51489;SDS011;57752;53.574;9.736;2023-01-15T06:02:54;10.65;;;2.92;;
51489;SDS011;57752;53.574;9.736;2023-01-15T06:07:54;17.45;;;3.58;;
51489;SDS011;57752;53.574;9.736;2023-01-15T06:12:54;10.57;;;3.05;;
51489;SDS011;57752;53.574;9.736;2023-01-15T06:17:54;13.98;;;3.97;;
51489;SDS011;57752;53.574;9.736;2023-01-15T06:22:54;14.73;;;2.85;;
51489;SDS011;57752;53.574;9.736;2023-01-15T06:27:54;14.63;;;3.47;;
51489;SDS011;57752;53.574;9.736;2023-01-15T06:32:54;13.40;;;3.08;;
51489;SDS011;57752;53.574;9.736;2023-01-15T06:37:55;13.75;;;3.50;;
51489;SDS011;57752;53.574;9.736;2023-01-15T06:42:58;15.30;;;3.40;;
51489;SDS011;57752;53.574;9.736;2023-01-15T06:48:17;14.98;;;3.72;;
51489;SDS011;57752;53.574;9.736;2023-01-15T06:53:18;13.40;;;3.00;;
51489;SDS011;57752;53.574;9.736;2023-01-15T06:58:18;15.48;;;3.13;;
51489;SDS011;57752;53.574;9.736;2023-01-15T07:03:21;16.52;;;3.13;;
51489;SDS011;57752;53.574;9.736;2023-01-15T07:08:21;14.43;;;3.55;;
51489;SDS011;57752;53.574;9.736;2023-01-15T07:13:22;16.42;;;3.65;;
51489;SDS011;57752;53.574;9.736;2023-01-15T07:18:22;18.25;;;3.15;;
51489;SDS011;57752;53.574;9.736;2023-01-15T07:23:23;14.98;;;3.25;;
51489;SDS011;57752;53.574;9.736;2023-01-15T07:28:23;13.15;;;3.28;;
51489;SDS011;57752;53.574;9.736;2023-01-15T07:33:24;17.63;;;3.35;;
51489;SDS011;57752;53.574;9.736;2023-01-15T07:38:24;20.10;;;3.80;;
51489;SDS011;57752;53.574;9.736;2023-01-15T07:43:24;14.52;;;3.33;;
51489;SDS011;57752;53.574;9.736;2023-01-15T07:48:43;16.48;;;3.75;;
51489;SDS011;57752;53.574;9.736;2023-01-15T07:54:01;14.32;;;3.30;;
51489;SDS011;57752;53.574;9.736;2023-01-15T07:59:02;11.70;;;3.45;;
51489;SDS011;57752;53.574;9.736;2023-01-15T08:04:02;16.13;;;3.47;;
51489;SDS011;57752;53.574;9.736;2023-01-15T08:09:02;15.43;;;3.50;;
51489;SDS011;57752;53.574;9.736;2023-01-15T08:14:02;15.15;;;3.50;;
51489;SDS011;57752;53.574;9.736;2023-01-15T08:19:21;15.45;;;2.85;;
51489;SDS011;57752;53.574;9.736;2023-01-15T08:24:24;15.23;;;3.47;;
51489;SDS011;57752;53.574;9.736;2023-01-15T08:29:24;13.85;;;3.53;;
51489;SDS011;57752;53.574;9.736;2023-01-15T08:34:24;16.20;;;3.15;;
51489;SDS011;57752;53.574;9.736;2023-01-15T08:39:25;12.57;;;3.42;;
51489;SDS011;57752;53.574;9.736;2023-01-15T08:44:25;12.48;;;3.15;;
51489;SDS011;57752;53.574;9.736;2023-01-15T08:49:25;10.95;;;2.97;;
51489;SDS011;57752;53.574;9.736;2023-01-15T08:54:26;15.68;;;3.10;;
51489;SDS011;57752;53.574;9.736;2023-01-15T08:59:26;14.35;;;3.30;;
51489;SDS011;57752;53.574;9.736;2023-01-15T09:04:26;12.00;;;2.75;;
51489;SDS011;57752;53.574;9.736;2023-01-15T09:09:26;14.07;;;3.55;;
51489;SDS011;57752;53.574;9.736;2023-01-15T09:14:26;12.27;;;3.17;;
51489;SDS011;57752;53.574;9.736;2023-01-15T09:19:27;12.13;;;3.08;;
51489;SDS011;57752;53.574;9.736;2023-01-15T09:24:27;13.68;;;2.92;;
51489;SDS011;57752;53.574;9.736;2023-01-15T09:29:27;12.38;;;3.70;;
51489;SDS011;57752;53.574;9.736;2023-01-15T09:34:27;13.73;;;3.67;;
51489;SDS011;57752;53.574;9.736;2023-01-15T09:39:27;11.80;;;2.90;;
51489;SDS011;57752;53.574;9.736;2023-01-15T09:49:43;15.30;;;3.00;;
51489;SDS011;57752;53.574;9.736;2023-01-15T09:59:48;11.10;;;2.55;;
51489;SDS011;57752;53.574;9.736;2023-01-15T10:04:53;13.07;;;2.78;;
51489;SDS011;57752;53.574;9.736;2023-01-15T10:09:57;11.52;;;3.08;;
51489;SDS011;57752;53.574;9.736;2023-01-15T10:14:59;10.20;;;2.57;;
51489;SDS011;57752;53.574;9.736;2023-01-15T10:20:01;10.65;;;2.65;;
51489;SDS011;57752;53.574;9.736;2023-01-15T10:25:03;14.63;;;2.95;;
51489;SDS011;57752;53.574;9.736;2023-01-15T10:30:05;10.07;;;2.80;;
51489;SDS011;57752;53.574;9.736;2023-01-15T10:45:39;10.35;;;2.90;;
51489;SDS011;57752;53.574;9.736;2023-01-15T10:50:40;10.45;;;2.67;;
51489;SDS011;57752;53.574;9.736;2023-01-15T10:55:41;9.47;;;2.60;;
51489;SDS011;57752;53.574;9.736;2023-01-15T11:00:45;11.63;;;2.40;;
51489;SDS011;57752;53.574;9.736;2023-01-15T11:05:48;14.52;;;2.95;;
51489;SDS011;57752;53.574;9.736;2023-01-15T11:10:48;13.50;;;2.88;;
51489;SDS011;57752;53.574;9.736;2023-01-15T11:15:48;12.38;;;2.78;;
51489;SDS011;57752;53.574;9.736;2023-01-15T11:21:14;13.48;;;3.30;;
51489;SDS011;57752;53.574;9.736;2023-01-15T11:26:23;10.48;;;2.47;;
51489;SDS011;57752;53.574;9.736;2023-01-15T11:31:37;13.23;;;2.80;;
51489;SDS011;57752;53.574;9.736;2023-01-15T11:36:37;9.77;;;2.70;;
51489;SDS011;57752;53.574;9.736;2023-01-15T11:41:37;11.73;;;2.35;;
51489;SDS011;57752;53.574;9.736;2023-01-15T11:46:56;11.50;;;2.47;;
51489;SDS011;57752;53.574;9.736;2023-01-15T11:52:16;6.75;;;1.90;;
51489;SDS011;57752;53.574;9.736;2023-01-15T11:57:28;10.18;;;2.22;;
51489;SDS011;57752;53.574;9.736;2023-01-15T12:07:29;5.57;;;1.65;;
51489;SDS011;57752;53.574;9.736;2023-01-15T12:12:40;7.22;;;1.92;;
51489;SDS011;57752;53.574;9.736;2023-01-15T12:18:02;3.97;;;1.63;;
51489;SDS011;57752;53.574;9.736;2023-01-15T12:23:23;4.38;;;1.80;;
51489;SDS011;57752;53.574;9.736;2023-01-15T12:28:34;9.47;;;1.80;;
51489;SDS011;57752;53.574;9.736;2023-01-15T12:38:46;8.35;;;2.30;;
51489;SDS011;57752;53.574;9.736;2023-01-15T12:43:48;9.27;;;2.50;;
51489;SDS011;57752;53.574;9.736;2023-01-15T12:54:12;9.05;;;2.35;;
51489;SDS011;57752;53.574;9.736;2023-01-15T12:59:24;11.57;;;2.60;;
51489;SDS011;57752;53.574;9.736;2023-01-15T13:04:34;11.77;;;2.80;;
51489;SDS011;57752;53.574;9.736;2023-01-15T13:09:41;13.48;;;2.95;;
51489;SDS011;57752;53.574;9.736;2023-01-15T13:14:43;11.10;;;2.88;;
51489;SDS011;57752;53.574;9.736;2023-01-15T13:19:47;13.02;;;3.00;;
51489;SDS011;57752;53.574;9.736;2023-01-15T13:30:06;15.38;;;3.17;;
51489;SDS011;57752;53.574;9.736;2023-01-15T13:35:18;12.73;;;3.70;;
51489;SDS011;57752;53.574;9.736;2023-01-15T13:40:26;14.05;;;3.38;;
51489;SDS011;57752;53.574;9.736;2023-01-15T13:45:37;13.10;;;2.47;;
51489;SDS011;57752;53.574;9.736;2023-01-15T13:50:42;12.20;;;2.95;;
51489;SDS011;57752;53.574;9.736;2023-01-15T13:55:59;12.65;;;3.13;;
51489;SDS011;57752;53.574;9.736;2023-01-15T14:06:06;10.90;;;2.95;;
51489;SDS011;57752;53.574;9.736;2023-01-15T14:21:39;16.08;;;3.38;;
51489;SDS011;57752;53.574;9.736;2023-01-15T14:31:57;9.57;;;2.88;;
51489;SDS011;57752;53.574;9.736;2023-01-15T14:36:59;11.52;;;2.90;;
51489;SDS011;57752;53.574;9.736;2023-01-15T14:47:53;12.68;;;2.90;;
51489;SDS011;57752;53.574;9.736;2023-01-15T14:52:46;14.07;;;2.90;;
51489;SDS011;57752;53.574;9.736;2023-01-15T14:57:58;11.57;;;2.92;;
51489;SDS011;57752;53.574;9.736;2023-01-15T15:03:00;16.10;;;3.47;;
51489;SDS011;57752;53.574;9.736;2023-01-15T15:08:00;11.02;;;3.65;;
51489;SDS011;57752;53.574;9.736;2023-01-15T15:18:13;13.75;;;3.50;;
51489;SDS011;57752;53.574;9.736;2023-01-15T15:28:33;12.60;;;3.10;;
51489;SDS011;57752;53.574;9.736;2023-01-15T15:33:37;13.30;;;3.30;;
51489;SDS011;57752;53.574;9.736;2023-01-15T15:38:38;10.05;;;3.00;;
51489;SDS011;57752;53.574;9.736;2023-01-15T15:43:50;8.95;;;2.65;;
51489;SDS011;57752;53.574;9.736;2023-01-15T15:49:10;7.85;;;2.88;;
51489;SDS011;57752;53.574;9.736;2023-01-15T15:54:12;10.52;;;2.58;;
51489;SDS011;57752;53.574;9.736;2023-01-15T15:59:25;9.23;;;2.53;;
51489;SDS011;57752;53.574;9.736;2023-01-15T16:04:26;9.63;;;2.90;;
51489;SDS011;57752;53.574;9.736;2023-01-15T16:09:26;10.00;;;3.00;;
51489;SDS011;57752;53.574;9.736;2023-01-15T16:14:26;9.95;;;2.80;;
51489;SDS011;57752;53.574;9.736;2023-01-15T16:19:27;12.38;;;2.95;;
51489;SDS011;57752;53.574;9.736;2023-01-15T16:24:28;10.43;;;2.58;;
51489;SDS011;57752;53.574;9.736;2023-01-15T16:29:29;10.52;;;2.75;;
51489;SDS011;57752;53.574;9.736;2023-01-15T16:34:31;8.27;;;2.30;;
51489;SDS011;57752;53.574;9.736;2023-01-15T16:39:38;8.65;;;2.40;;
51489;SDS011;57752;53.574;9.736;2023-01-15T16:44:40;9.63;;;2.67;;
51489;SDS011;57752;53.574;9.736;2023-01-15T16:49:45;10.65;;;3.15;;
51489;SDS011;57752;53.574;9.736;2023-01-15T16:54:45;8.98;;;2.22;;
51489;SDS011;57752;53.574;9.736;2023-01-15T17:04:46;7.63;;;2.28;;
51489;SDS011;57752;53.574;9.736;2023-01-15T17:09:48;9.73;;;2.30;;
51489;SDS011;57752;53.574;9.736;2023-01-15T17:14:48;7.85;;;2.40;;
51489;SDS011;57752;53.574;9.736;2023-01-15T17:19:49;6.40;;;2.10;;
51489;SDS011;57752;53.574;9.736;2023-01-15T17:24:51;7.88;;;2.17;;
51489;SDS011;57752;53.574;9.736;2023-01-15T17:29:51;9.23;;;2.35;;
51489;SDS011;57752;53.574;9.736;2023-01-15T17:34:51;8.98;;;2.40;;
51489;SDS011;57752;53.574;9.736;2023-01-15T17:39:51;10.38;;;2.30;;
51489;SDS011;57752;53.574;9.736;2023-01-15T17:44:52;10.82;;;3.00;;
51489;SDS011;57752;53.574;9.736;2023-01-15T17:49:52;9.40;;;2.78;;
51489;SDS011;57752;53.574;9.736;2023-01-15T17:54:52;10.98;;;2.90;;
51489;SDS011;57752;53.574;9.736;2023-01-15T18:00:11;11.50;;;3.40;;
51489;SDS011;57752;53.574;9.736;2023-01-15T18:05:29;10.15;;;3.20;;
51489;SDS011;57752;53.574;9.736;2023-01-15T18:10:34;11.93;;;3.67;;
51489;SDS011;57752;53.574;9.736;2023-01-15T18:15:34;11.25;;;3.63;;
51489;SDS011;57752;53.574;9.736;2023-01-15T18:20:34;10.63;;;3.00;;
51489;SDS011;57752;53.574;9.736;2023-01-15T18:25:34;10.35;;;3.50;;
51489;SDS011;57752;53.574;9.736;2023-01-15T18:30:34;12.18;;;3.15;;
51489;SDS011;57752;53.574;9.736;2023-01-15T18:35:34;14.05;;;3.40;;
51489;SDS011;57752;53.574;9.736;2023-01-15T18:40:35;12.30;;;3.47;;
51489;SDS011;57752;53.574;9.736;2023-01-15T18:45:35;11.95;;;3.20;;
51489;SDS011;57752;53.574;9.736;2023-01-15T18:50:54;13.57;;;3.13;;
51489;SDS011;57752;53.574;9.736;2023-01-15T18:55:59;12.05;;;3.20;;
51489;SDS011;57752;53.574;9.736;2023-01-15T19:01:05;12.75;;;2.92;;
51489;SDS011;57752;53.574;9.736;2023-01-15T19:06:06;12.52;;;2.90;;
51489;SDS011;57752;53.574;9.736;2023-01-15T19:11:11;12.18;;;3.42;;
51489;SDS011;57752;53.574;9.736;2023-01-15T19:16:11;10.63;;;3.13;;
51489;SDS011;57752;53.574;9.736;2023-01-15T19:21:30;11.57;;;3.10;;
51489;SDS011;57752;53.574;9.736;2023-01-15T19:26:30;14.57;;;3.28;;
51489;SDS011;57752;53.574;9.736;2023-01-15T19:31:30;12.48;;;3.20;;
51489;SDS011;57752;53.574;9.736;2023-01-15T19:36:37;14.27;;;3.78;;
51489;SDS011;57752;53.574;9.736;2023-01-15T19:41:38;14.57;;;3.67;;
51489;SDS011;57752;53.574;9.736;2023-01-15T19:46:56;15.25;;;3.92;;
51489;SDS011;57752;53.574;9.736;2023-01-15T19:52:15;10.07;;;3.50;;
51489;SDS011;57752;53.574;9.736;2023-01-15T19:57:34;13.57;;;4.00;;
51489;SDS011;57752;53.574;9.736;2023-01-15T20:02:34;13.30;;;3.88;;
51489;SDS011;57752;53.574;9.736;2023-01-15T20:07:35;12.77;;;4.07;;
51489;SDS011;57752;53.574;9.736;2023-01-15T20:12:36;12.85;;;4.60;;
51489;SDS011;57752;53.574;9.736;2023-01-15T20:17:56;14.90;;;4.53;;
51489;SDS011;57752;53.574;9.736;2023-01-15T20:22:56;14.80;;;4.50;;
51489;SDS011;57752;53.574;9.736;2023-01-15T20:27:57;11.63;;;4.22;;
51489;SDS011;57752;53.574;9.736;2023-01-15T20:32:58;14.10;;;4.15;;
51489;SDS011;57752;53.574;9.736;2023-01-15T20:37:59;12.55;;;4.45;;
51489;SDS011;57752;53.574;9.736;2023-01-15T20:42:59;14.98;;;4.25;;
51489;SDS011;57752;53.574;9.736;2023-01-15T20:48:18;10.65;;;4.18;;
51489;SDS011;57752;53.574;9.736;2023-01-15T20:53:37;11.32;;;4.13;;
51489;SDS011;57752;53.574;9.736;2023-01-15T20:58:38;12.98;;;4.10;;
51489;SDS011;57752;53.574;9.736;2023-01-15T21:03:38;10.88;;;4.07;;
51489;SDS011;57752;53.574;9.736;2023-01-15T21:08:38;13.70;;;4.60;;
51489;SDS011;57752;53.574;9.736;2023-01-15T21:13:39;14.68;;;5.20;;
51489;SDS011;57752;53.574;9.736;2023-01-15T21:18:43;13.27;;;4.38;;
51489;SDS011;57752;53.574;9.736;2023-01-15T21:23:45;16.20;;;4.80;;
51489;SDS011;57752;53.574;9.736;2023-01-15T21:28:45;13.95;;;5.20;;
51489;SDS011;57752;53.574;9.736;2023-01-15T21:33:45;12.82;;;5.13;;
51489;SDS011;57752;53.574;9.736;2023-01-15T21:38:52;20.80;;;6.00;;
51489;SDS011;57752;53.574;9.736;2023-01-15T21:43:56;16.58;;;6.97;;
51489;SDS011;57752;53.574;9.736;2023-01-15T21:49:15;15.77;;;6.45;;
51489;SDS011;57752;53.574;9.736;2023-01-15T21:54:15;16.10;;;6.00;;
51489;SDS011;57752;53.574;9.736;2023-01-15T21:59:15;15.13;;;6.07;;
51489;SDS011;57752;53.574;9.736;2023-01-15T22:04:15;16.65;;;6.30;;
51489;SDS011;57752;53.574;9.736;2023-01-15T22:09:16;17.40;;;6.15;;
51489;SDS011;57752;53.574;9.736;2023-01-15T22:19:23;16.55;;;7.40;;
51489;SDS011;57752;53.574;9.736;2023-01-15T22:24:24;15.85;;;7.35;;
51489;SDS011;57752;53.574;9.736;2023-01-15T22:29:26;16.55;;;7.20;;
51489;SDS011;57752;53.574;9.736;2023-01-15T22:34:26;17.00;;;7.55;;
51489;SDS011;57752;53.574;9.736;2023-01-15T22:39:26;15.27;;;7.13;;
51489;SDS011;57752;53.574;9.736;2023-01-15T22:44:26;16.05;;;6.70;;
51489;SDS011;57752;53.574;9.736;2023-01-15T22:49:27;15.60;;;7.10;;
51489;SDS011;57752;53.574;9.736;2023-01-15T22:54:27;14.20;;;6.00;;
51489;SDS011;57752;53.574;9.736;2023-01-15T22:59:27;12.35;;;5.60;;
51489;SDS011;57752;53.574;9.736;2023-01-15T23:04:27;12.50;;;5.60;;
51489;SDS011;57752;53.574;9.736;2023-01-15T23:09:28;12.27;;;4.95;;
51489;SDS011;57752;53.574;9.736;2023-01-15T23:14:28;12.60;;;4.95;;
51489;SDS011;57752;53.574;9.736;2023-01-15T23:19:28;13.05;;;4.70;;
51489;SDS011;57752;53.574;9.736;2023-01-15T23:24:28;12.30;;;4.70;;
51489;SDS011;57752;53.574;9.736;2023-01-15T23:29:28;14.65;;;5.13;;
51489;SDS011;57752;53.574;9.736;2023-01-15T23:34:28;14.40;;;5.60;;
51489;SDS011;57752;53.574;9.736;2023-01-15T23:39:28;14.57;;;5.78;;
51489;SDS011;57752;53.574;9.736;2023-01-15T23:44:29;15.93;;;6.13;;
51489;SDS011;57752;53.574;9.736;2023-01-15T23:49:48;14.30;;;6.07;;
51489;SDS011;57752;53.574;9.736;2023-01-15T23:54:48;16.83;;;6.90;;
51489;SDS011;57752;53.574;9.736;2023-01-15T23:59:48;19.88;;;7.75;;
